createdAt,value
2022-11-18T00:04:39.680Z,98800.06
2022-11-18T00:09:43.595Z,98784.16
2022-11-18T00:14:47.367Z,98785.59
2022-11-18T00:19:49.924Z,98787.88
2022-11-18T00:24:53.952Z,98789.09
2022-11-18T00:29:56.528Z,98804.63
2022-11-18T00:34:59.106Z,98803.53
2022-11-18T00:40:07.536Z,98801.84
2022-11-18T00:45:10.889Z,98796.75
2022-11-18T00:50:13.968Z,98779.88
2022-11-18T00:55:19.044Z,98792.84
2022-11-18T01:00:21.777Z,98802.19
2022-11-18T01:05:24.377Z,98806.41
2022-11-18T01:10:28.382Z,98809.72
2022-11-18T01:15:31.042Z,98805.19
2022-11-18T01:20:34.005Z,98797.50
2022-11-18T01:25:39.820Z,98796.84
2022-11-18T01:30:45.652Z,98795.97
2022-11-18T01:35:48.231Z,98796.94
2022-11-18T01:40:54.815Z,98794.84
2022-11-18T01:45:57.566Z,98793.72
2022-11-18T01:51:05.049Z,98786.13
2022-11-18T01:56:13.615Z,98788.72
2022-11-18T02:01:16.530Z,98803.16
2022-11-18T02:06:19.825Z,98796.34
2022-11-18T02:11:41.116Z,98794.34
2022-11-18T02:16:57.079Z,98797.22
2022-11-18T02:22:12.414Z,98796.53
2022-11-18T02:27:52.579Z,98815.47
2022-11-18T02:33:02.187Z,98811.59
2022-11-18T02:38:11.156Z,98813.47
2022-11-18T02:43:19.505Z,98827.13
2022-11-18T02:48:27.059Z,98823.44
2022-11-18T02:53:32.697Z,98829.16
2022-11-18T02:58:35.340Z,98825.75
2022-11-18T03:03:39.362Z,98828.44
2022-11-18T03:08:49.352Z,98851.97
2022-11-18T03:14:08.066Z,98855.59
2022-11-18T03:19:21.774Z,98855.81
2022-11-18T03:24:32.584Z,98861.59
2022-11-18T03:29:39.180Z,98858.50
2022-11-18T03:34:47.358Z,98850.75
2022-11-18T03:39:56.788Z,98849.66
2022-11-18T03:45:04.593Z,98854.84
2022-11-18T03:50:17.373Z,98868.09
2022-11-18T03:55:24.307Z,98877.25
2022-11-18T04:00:31.010Z,98893.56
2022-11-18T04:05:40.590Z,98891.97
2022-11-18T04:10:52.923Z,98893.66
2022-11-18T04:15:56.472Z,98892.03
2022-11-18T04:21:00.387Z,98890.13
2022-11-18T04:26:02.992Z,98896.47
2022-11-18T04:31:05.833Z,98898.69
2022-11-18T04:36:10.565Z,98911.69
2022-11-18T04:41:13.150Z,98913.94
2022-11-18T04:46:15.742Z,98917.25
2022-11-18T04:51:19.719Z,98917.56
2022-11-18T04:56:22.296Z,98919.94
2022-11-18T05:01:24.990Z,98929.91
2022-11-18T05:06:29.076Z,98927.63
2022-11-18T05:11:49.337Z,98927.66
2022-11-18T05:16:51.867Z,98928.47
2022-11-18T05:21:56.049Z,98937.59
2022-11-18T05:26:58.600Z,98932.63
2022-11-18T05:32:01.327Z,98944.50
2022-11-18T05:37:05.341Z,98952.69
2022-11-18T05:42:25.449Z,98961.38
2022-11-18T05:47:28.193Z,98965.28
2022-11-18T05:52:32.122Z,98976.81
2022-11-18T05:57:35.224Z,98992.31
2022-11-18T06:02:38.699Z,99002.34
2022-11-18T06:07:45.235Z,99010.34
2022-11-18T06:12:52.507Z,99016.72
2022-11-18T06:17:58.908Z,99028.78
2022-11-18T06:23:02.859Z,99036.34
2022-11-18T06:28:05.875Z,99032.31
2022-11-18T06:33:08.783Z,99048.44
2022-11-18T06:38:12.724Z,99051.09
2022-11-18T06:43:32.924Z,99047.09
2022-11-18T06:48:35.539Z,99055.94
2022-11-18T06:53:39.540Z,99056.00
2022-11-18T06:58:42.257Z,99063.59
2022-11-18T07:03:46.393Z,99058.94
2022-11-18T07:08:51.581Z,99070.63
2022-11-18T07:13:54.654Z,99072.75
2022-11-18T07:18:57.632Z,99075.91
2022-11-18T07:24:01.566Z,99090.25
2022-11-18T07:29:04.661Z,99093.75
2022-11-18T07:34:07.887Z,99098.72
2022-11-18T07:39:11.960Z,99102.75
2022-11-18T07:44:14.672Z,99110.34
2022-11-18T07:49:17.524Z,99104.91
2022-11-18T07:54:21.588Z,99124.91
2022-11-18T07:59:24.307Z,99125.16
2022-11-18T08:04:27.039Z,99131.88
2022-11-18T08:09:30.922Z,99139.22
2022-11-18T08:14:33.497Z,99144.50
2022-11-18T08:19:39.154Z,99145.31
2022-11-18T08:24:43.085Z,99157.69
2022-11-18T08:29:45.832Z,99161.22
2022-11-18T08:34:48.582Z,99164.25
2022-11-18T08:39:52.492Z,99162.84
2022-11-18T08:44:55.851Z,99184.66
2022-11-18T08:49:58.479Z,99184.72
2022-11-18T08:55:03.162Z,99187.63
2022-11-18T09:00:08.221Z,99196.34
2022-11-18T09:05:13.058Z,99198.19
2022-11-18T09:10:17.735Z,99202.53
2022-11-18T09:15:20.832Z,99204.09
2022-11-18T09:20:24.169Z,99215.81
2022-11-18T09:25:28.156Z,99223.44
2022-11-18T09:30:31.334Z,99237.41
2022-11-18T09:35:34.381Z,99232.69
2022-11-18T09:40:47.727Z,99241.06
2022-11-18T09:45:57.618Z,99248.31
2022-11-18T09:51:01.203Z,99247.81
2022-11-18T09:56:05.897Z,99255.97
2022-11-18T10:01:14.106Z,99257.63
2022-11-18T10:06:23.904Z,99276.78
2022-11-18T10:11:40.273Z,99283.84
2022-11-18T10:16:57.741Z,99286.94
2022-11-18T10:22:24.654Z,99302.47
2022-11-18T10:27:38.644Z,99295.44
2022-11-18T10:32:54.875Z,99298.59
2022-11-18T10:38:10.197Z,99314.63
2022-11-18T10:43:38.040Z,99327.63
2022-11-18T10:48:40.582Z,99336.78
2022-11-18T10:53:43.730Z,99333.16
2022-11-18T10:58:50.868Z,99343.72
2022-11-18T11:04:02.147Z,99351.69
2022-11-18T11:09:08.777Z,99358.47
2022-11-18T11:14:32.953Z,99366.00
2022-11-18T11:19:42.142Z,99371.53
2022-11-18T11:24:45.600Z,99367.25
2022-11-18T11:30:14.245Z,99381.88
2022-11-18T11:35:23.510Z,99376.53
2022-11-18T11:40:34.809Z,99393.06
2022-11-18T11:45:47.951Z,99400.66
2022-11-18T11:51:04.046Z,99396.50
2022-11-18T11:56:21.163Z,99403.56
2022-11-18T12:01:35.458Z,99392.81
2022-11-18T12:06:38.244Z,99412.81
2022-11-18T12:11:50.670Z,99424.72
2022-11-18T12:17:02.994Z,99418.06
2022-11-18T12:22:06.415Z,99423.84
2022-11-18T12:27:35.606Z,99426.69
2022-11-18T12:32:42.983Z,99436.28
2022-11-18T12:38:00.755Z,99435.06
2022-11-18T12:43:21.724Z,99435.56
2022-11-18T12:48:41.159Z,99448.66
2022-11-18T12:53:45.996Z,99447.06
2022-11-18T12:58:50.058Z,99449.81
2022-11-18T13:04:06.263Z,99466.28
2022-11-18T13:09:17.936Z,99469.75
2022-11-18T13:14:48.213Z,99475.22
2022-11-18T13:19:58.944Z,99484.63
2022-11-18T13:25:01.534Z,99486.13
2022-11-18T13:30:11.048Z,99491.41
2022-11-18T13:35:18.728Z,99500.03
2022-11-18T13:40:24.869Z,99500.81
2022-11-18T13:45:29.382Z,99508.31
2022-11-18T13:50:34.429Z,99514.22
2022-11-18T13:55:41.046Z,99515.91
2022-11-18T14:00:43.815Z,99516.09
2022-11-18T14:05:54.064Z,99527.81
2022-11-18T14:10:57.542Z,99542.75
2022-11-18T14:16:02.533Z,99548.44
2022-11-18T14:21:06.868Z,99548.91
2022-11-18T14:26:10.069Z,99550.81
2022-11-18T14:31:24.898Z,99563.78
2022-11-18T14:36:32.032Z,99561.53
2022-11-18T14:41:50.685Z,99568.69
2022-11-18T14:47:12.063Z,99584.16
2022-11-18T14:52:17.033Z,99587.66
2022-11-18T14:57:19.677Z,99584.16
2022-11-18T15:02:22.315Z,99598.38
2022-11-18T15:07:26.266Z,99614.22
2022-11-18T15:12:28.892Z,99612.13
2022-11-18T15:17:31.458Z,99628.94
2022-11-18T15:22:35.609Z,99626.94
2022-11-18T15:27:39.068Z,99642.50
2022-11-18T15:32:41.689Z,99638.69
2022-11-18T15:37:45.575Z,99654.78
2022-11-18T15:42:52.013Z,99663.94
2022-11-18T15:47:55.532Z,99677.44
2022-11-18T15:53:02.122Z,99680.38
2022-11-18T15:58:07.115Z,99678.91
2022-11-18T16:03:10.180Z,99686.78
2022-11-18T16:08:14.187Z,99693.22
2022-11-18T16:13:22.243Z,99697.53
2022-11-18T16:18:25.267Z,99704.69
2022-11-18T16:23:29.953Z,99712.38
2022-11-18T16:28:35.287Z,99719.91
2022-11-18T16:33:38.583Z,99722.03
2022-11-18T16:38:43.390Z,99720.56
2022-11-18T16:43:45.994Z,99727.38
2022-11-18T16:48:48.879Z,99737.66
2022-11-18T16:53:55.663Z,99737.81
2022-11-18T16:59:00.469Z,99749.06
2022-11-18T17:04:03.956Z,99762.31
2022-11-18T17:09:09.192Z,99770.03
2022-11-18T17:14:13.291Z,99784.31
2022-11-18T17:19:18.036Z,99785.44
2022-11-18T17:24:24.042Z,99792.88
2022-11-18T17:29:26.602Z,99791.31
2022-11-18T17:34:29.237Z,99794.72
2022-11-18T17:39:33.293Z,99803.22
2022-11-18T17:44:35.838Z,99806.13
2022-11-18T17:49:38.396Z,99815.63
2022-11-18T17:54:42.339Z,99809.75
2022-11-18T17:59:44.918Z,99812.50
2022-11-18T18:04:49.930Z,99817.22
2022-11-18T18:09:54.240Z,99821.28
2022-11-18T18:14:56.780Z,99817.88
2022-11-18T18:19:59.334Z,99827.19
2022-11-18T18:25:03.695Z,99833.59
2022-11-18T18:30:16.329Z,99842.25
2022-11-18T18:35:19.768Z,99845.88
2022-11-18T18:40:26.349Z,99855.53
2022-11-18T18:45:46.629Z,99857.94
2022-11-18T18:50:49.752Z,99853.28
2022-11-18T18:55:58.217Z,99857.84
2022-11-18T19:01:07.573Z,99857.03
2022-11-18T19:12:02.057Z,99867.22
2022-11-18T19:22:33.536Z,99891.66
2022-11-18T19:27:40.440Z,99897.72
2022-11-18T19:32:44.135Z,99895.97
2022-11-18T19:37:47.588Z,99895.22
2022-11-18T19:42:52.474Z,99881.94
2022-11-18T19:47:55.818Z,99888.41
2022-11-18T19:52:58.427Z,99896.84
2022-11-18T19:58:03.153Z,99907.09
2022-11-18T20:03:06.448Z,99916.50
2022-11-18T20:08:10.354Z,99926.88
2022-11-18T20:13:15.901Z,99935.78
2022-11-18T20:18:22.442Z,99951.31
2022-11-18T20:23:25.770Z,99959.84
2022-11-18T20:28:30.239Z,99954.88
2022-11-18T20:33:34.818Z,99950.06
2022-11-18T20:38:37.777Z,99964.66
2022-11-18T20:43:44.283Z,99958.28
2022-11-18T20:48:49.411Z,99969.25
2022-11-18T20:53:56.256Z,99971.59
2022-11-18T20:59:03.579Z,99971.44
2022-11-18T21:04:07.016Z,99984.78
2022-11-18T21:09:10.316Z,99976.25
2022-11-18T21:14:25.371Z,99988.06
2022-11-18T21:19:29.594Z,100001.06
2022-11-18T21:24:36.051Z,99987.78
2022-11-18T21:29:46.619Z,99993.97
2022-11-18T21:34:49.799Z,99992.22
2022-11-18T21:39:53.930Z,99990.69
2022-11-18T21:44:59.552Z,99996.59
2022-11-18T21:50:02.906Z,100010.47
2022-11-18T21:55:07.873Z,99993.75
2022-11-18T22:00:17.438Z,100013.75
2022-11-18T22:05:20.685Z,100013.81
2022-11-18T22:10:24.126Z,100024.66
2022-11-18T22:15:28.885Z,100036.84
2022-11-18T22:20:32.171Z,100028.91
2022-11-18T22:25:35.494Z,100036.38
2022-11-18T22:30:41.656Z,100045.63
2022-11-18T22:35:45.073Z,100039.94
2022-11-18T22:40:48.396Z,100049.28
2022-11-18T22:45:59.699Z,100050.91
2022-11-18T22:51:04.453Z,100050.06
2022-11-18T22:56:10.774Z,100058.19
2022-11-18T23:01:17.474Z,100062.47
2022-11-18T23:06:21.294Z,100064.63
2022-11-18T23:11:38.384Z,100066.13
2022-11-18T23:16:43.575Z,100084.84
2022-11-18T23:21:46.619Z,100084.38
2022-11-18T23:26:49.432Z,100091.00
2022-11-18T23:31:53.833Z,100083.13
2022-11-18T23:36:56.299Z,100089.41
2022-11-18T23:41:58.994Z,100106.06
2022-11-18T23:47:02.867Z,100107.22
2022-11-18T23:52:06.130Z,100112.72
2022-11-18T23:57:09.267Z,100117.47
